createdAt,value
2023-05-08T00:00:09.197Z,92.60
2023-05-08T00:01:09.148Z,92.60
2023-05-08T00:02:09.132Z,92.49
2023-05-08T00:03:09.137Z,92.54
2023-05-08T00:04:09.211Z,92.54
2023-05-08T00:05:09.171Z,92.60
2023-05-08T00:06:09.082Z,92.49
2023-05-08T00:07:09.071Z,92.54
2023-05-08T00:08:09.049Z,92.49
2023-05-08T00:09:09.053Z,92.54
2023-05-08T00:10:09.028Z,92.49
2023-05-08T00:11:09.028Z,92.54
2023-05-08T00:12:09.005Z,92.49
2023-05-08T00:13:09.005Z,92.44
2023-05-08T00:14:08.975Z,92.49
2023-05-08T00:15:09.005Z,92.40
2023-05-08T00:16:08.978Z,92.40
2023-05-08T00:17:08.991Z,92.40
2023-05-08T00:18:08.922Z,92.40
2023-05-08T00:19:08.909Z,92.40
2023-05-08T00:20:08.969Z,92.40
2023-05-08T00:21:08.884Z,92.29
2023-05-08T00:22:08.871Z,92.29
2023-05-08T00:23:09.210Z,92.29
2023-05-08T00:24:08.875Z,92.33
2023-05-08T00:25:08.834Z,92.40
2023-05-08T00:26:08.818Z,92.29
2023-05-08T00:27:08.803Z,92.40
2023-05-08T00:28:08.820Z,92.44
2023-05-08T00:29:08.800Z,92.44
2023-05-08T00:30:08.776Z,92.44
2023-05-08T00:31:08.775Z,92.44
2023-05-08T00:32:08.755Z,92.44
2023-05-08T00:33:08.763Z,92.44
2023-05-08T00:34:08.712Z,92.44
2023-05-08T00:35:08.688Z,92.33
2023-05-08T00:36:08.685Z,92.44
2023-05-08T00:37:08.664Z,92.44
2023-05-08T00:38:08.649Z,92.33
2023-05-08T00:39:08.643Z,92.33
2023-05-08T00:40:08.629Z,92.44
2023-05-08T00:41:08.613Z,92.44
2023-05-08T00:42:08.605Z,92.33
2023-05-08T00:43:08.597Z,92.33
2023-05-08T00:44:08.878Z,92.33
2023-05-08T00:45:08.558Z,92.33
2023-05-08T00:46:08.618Z,92.28
2023-05-08T00:47:08.591Z,92.24
2023-05-08T00:48:08.518Z,92.24
2023-05-08T00:49:08.505Z,92.24
2023-05-08T00:50:08.514Z,92.24
2023-05-08T00:51:08.496Z,92.24
2023-05-08T00:52:08.470Z,92.13
2023-05-08T00:53:08.453Z,92.13
2023-05-08T00:54:08.439Z,92.13
2023-05-08T00:55:08.428Z,92.13
2023-05-08T00:56:08.416Z,92.13
2023-05-08T00:57:08.409Z,92.13
2023-05-08T00:58:08.382Z,92.13
2023-05-08T00:59:08.373Z,92.13
2023-05-08T01:00:08.540Z,92.03
2023-05-08T01:01:08.412Z,92.03
2023-05-08T01:02:08.341Z,91.99
2023-05-08T01:03:08.430Z,92.03
2023-05-08T01:04:08.321Z,92.03
2023-05-08T01:05:08.302Z,92.03
2023-05-08T01:06:08.293Z,92.03
2023-05-08T01:07:08.266Z,92.03
2023-05-08T01:08:08.258Z,92.03
2023-05-08T01:09:08.244Z,92.03
2023-05-08T01:10:08.248Z,92.03
2023-05-08T01:11:08.220Z,92.03
2023-05-08T01:12:08.206Z,92.03
2023-05-08T01:13:08.236Z,92.03
2023-05-08T01:14:08.176Z,92.03
2023-05-08T01:15:08.164Z,92.03
2023-05-08T01:16:08.187Z,91.93
2023-05-08T01:17:08.136Z,91.93
2023-05-08T01:18:08.117Z,91.93
2023-05-08T01:19:08.129Z,91.93
2023-05-08T01:20:08.097Z,91.93
2023-05-08T01:21:08.086Z,91.93
2023-05-08T01:22:08.079Z,91.93
2023-05-08T01:23:08.064Z,91.83
2023-05-08T01:24:08.052Z,91.83
2023-05-08T01:25:08.036Z,91.83
2023-05-08T01:26:08.028Z,91.83
2023-05-08T01:27:08.005Z,91.78
2023-05-08T01:28:08.039Z,91.83
2023-05-08T01:29:07.987Z,91.83
2023-05-08T01:30:07.990Z,91.83
2023-05-08T01:31:07.953Z,91.83
2023-05-08T01:32:07.935Z,91.83
2023-05-08T01:33:07.975Z,91.83
2023-05-08T01:34:07.992Z,91.83
2023-05-08T01:35:07.933Z,91.83
2023-05-08T01:36:07.888Z,91.83
2023-05-08T01:37:07.884Z,91.83
2023-05-08T01:38:07.859Z,91.83
2023-05-08T01:39:07.850Z,91.83
2023-05-08T01:40:07.852Z,91.83
2023-05-08T01:41:07.828Z,91.73
2023-05-08T01:42:07.818Z,91.83
2023-05-08T01:43:07.792Z,91.83
2023-05-08T01:44:07.775Z,91.73
2023-05-08T01:45:07.765Z,91.73
2023-05-08T01:46:07.776Z,91.73
2023-05-08T01:47:07.851Z,91.73
2023-05-08T01:48:07.745Z,91.73
2023-05-08T01:49:07.708Z,91.73
2023-05-08T01:50:07.700Z,91.73
2023-05-08T01:51:07.709Z,91.73
2023-05-08T01:52:07.674Z,91.73
2023-05-08T01:53:07.666Z,91.73
2023-05-08T01:54:10.106Z,91.73
2023-05-08T01:55:07.650Z,91.73
2023-05-08T01:56:07.623Z,91.63
2023-05-08T01:57:07.611Z,91.63
2023-05-08T01:58:07.603Z,91.63
2023-05-08T01:59:07.583Z,91.63
2023-05-08T02:00:07.567Z,91.63
2023-05-08T02:01:07.581Z,91.63
2023-05-08T02:02:07.560Z,91.63
2023-05-08T02:03:07.550Z,91.63
2023-05-08T02:04:07.569Z,91.63
2023-05-08T02:05:07.547Z,91.63
2023-05-08T02:06:07.510Z,91.63
2023-05-08T02:07:07.508Z,91.67
2023-05-08T02:08:07.457Z,91.63
2023-05-08T02:09:07.463Z,91.67
2023-05-08T02:10:07.436Z,91.63
2023-05-08T02:11:07.718Z,91.63
2023-05-08T02:12:07.403Z,91.63
2023-05-08T02:13:07.509Z,91.67
2023-05-08T02:14:07.386Z,91.67
2023-05-08T02:15:07.364Z,91.67
2023-05-08T02:16:07.384Z,91.67
2023-05-08T02:17:07.428Z,91.67
2023-05-08T02:18:07.413Z,91.67
2023-05-08T02:19:07.317Z,91.67
2023-05-08T02:20:07.312Z,91.52
2023-05-08T02:21:07.287Z,91.56
2023-05-08T02:22:07.291Z,91.56
2023-05-08T02:23:07.383Z,91.52
2023-05-08T02:24:07.247Z,91.56
2023-05-08T02:25:07.227Z,91.56
2023-05-08T02:26:07.236Z,91.56
2023-05-08T02:27:07.203Z,91.52
2023-05-08T02:28:07.191Z,91.42
2023-05-08T02:29:07.220Z,91.52
2023-05-08T02:30:07.167Z,91.47
2023-05-08T02:31:07.169Z,91.42
2023-05-08T02:32:07.164Z,91.47
2023-05-08T02:33:07.174Z,91.42
2023-05-08T02:34:07.117Z,91.42
2023-05-08T02:35:07.094Z,91.36
2023-05-08T02:36:07.106Z,91.32
2023-05-08T02:37:07.075Z,91.42
2023-05-08T02:38:07.060Z,91.42
2023-05-08T02:39:07.077Z,91.47
2023-05-08T02:40:07.044Z,91.32
2023-05-08T02:41:07.041Z,91.36
2023-05-08T02:42:07.006Z,91.32
2023-05-08T02:43:06.993Z,91.32
2023-05-08T02:44:06.979Z,91.32
2023-05-08T02:45:06.959Z,91.32
2023-05-08T02:46:06.984Z,91.32
2023-05-08T02:47:07.395Z,91.32
2023-05-08T02:48:06.964Z,91.32
2023-05-08T02:49:06.910Z,91.36
2023-05-08T02:50:06.904Z,91.22
2023-05-08T02:51:06.879Z,91.32
2023-05-08T02:52:06.871Z,91.22
2023-05-08T02:53:06.858Z,91.26
2023-05-08T02:54:06.845Z,91.22
2023-05-08T02:55:06.851Z,91.22
2023-05-08T02:56:06.816Z,91.22
2023-05-08T02:57:06.820Z,91.22
2023-05-08T02:58:06.790Z,91.12
2023-05-08T02:59:06.769Z,91.22
2023-05-08T03:00:06.761Z,91.22
2023-05-08T03:01:06.877Z,91.22
2023-05-08T03:02:06.734Z,91.16
2023-05-08T03:03:06.806Z,91.22
2023-05-08T03:04:06.719Z,91.12
2023-05-08T03:05:06.695Z,91.26
2023-05-08T03:06:06.695Z,91.12
2023-05-08T03:07:06.665Z,91.16
2023-05-08T03:08:06.653Z,91.16
2023-05-08T03:09:06.653Z,91.16
2023-05-08T03:10:06.627Z,91.16
2023-05-08T03:11:06.640Z,91.12
2023-05-08T03:12:06.621Z,91.16
2023-05-08T03:13:06.689Z,91.16
2023-05-08T03:14:06.577Z,91.12
2023-05-08T03:15:06.569Z,91.16
2023-05-08T03:16:06.783Z,91.16
2023-05-08T03:17:06.533Z,91.02
2023-05-08T03:18:06.525Z,91.06
2023-05-08T03:19:06.507Z,91.06
2023-05-08T03:20:06.497Z,91.16
2023-05-08T03:21:06.474Z,91.06
2023-05-08T03:22:06.462Z,91.06
2023-05-08T03:23:06.466Z,91.06
2023-05-08T03:24:06.440Z,91.06
2023-05-08T03:25:06.432Z,91.02
2023-05-08T03:26:06.408Z,90.96
2023-05-08T03:27:06.418Z,91.02
2023-05-08T03:28:06.387Z,90.96
2023-05-08T03:29:06.372Z,90.96
2023-05-08T03:30:06.369Z,91.06
2023-05-08T03:31:06.356Z,91.06
2023-05-08T03:32:06.332Z,91.06
2023-05-08T03:33:06.333Z,90.96
2023-05-08T03:34:06.309Z,90.96
2023-05-08T03:35:06.650Z,90.96
2023-05-08T03:36:06.288Z,90.92
2023-05-08T03:37:06.264Z,90.92
2023-05-08T03:38:06.245Z,90.96
2023-05-08T03:39:06.277Z,90.96
2023-05-08T03:40:06.231Z,90.96
2023-05-08T03:41:06.213Z,90.96
2023-05-08T03:42:06.197Z,90.96
2023-05-08T03:43:06.304Z,90.96
2023-05-08T03:44:06.168Z,90.86
2023-05-08T03:45:06.154Z,90.86
2023-05-08T03:46:06.143Z,90.86
2023-05-08T03:47:06.171Z,90.86
2023-05-08T03:48:06.187Z,90.86
2023-05-08T03:49:06.149Z,90.81
2023-05-08T03:50:06.086Z,90.86
2023-05-08T03:51:06.081Z,90.86
2023-05-08T03:52:06.051Z,90.86
2023-05-08T03:53:06.042Z,90.86
2023-05-08T03:54:06.139Z,90.96
2023-05-08T03:55:06.023Z,90.86
2023-05-08T03:56:06.010Z,90.86
2023-05-08T03:57:05.999Z,90.86
2023-05-08T03:58:06.000Z,90.86
2023-05-08T03:59:06.084Z,90.90
2023-05-08T04:00:05.955Z,90.86
2023-05-08T04:01:05.940Z,90.86
2023-05-08T04:02:06.058Z,90.75
2023-05-08T04:03:05.960Z,90.90
2023-05-08T04:04:05.918Z,90.90
2023-05-08T04:05:05.892Z,90.86
2023-05-08T04:06:05.886Z,90.75
2023-05-08T04:07:05.867Z,90.75
2023-05-08T04:08:05.856Z,90.75
2023-05-08T04:09:05.991Z,90.75
2023-05-08T04:10:05.979Z,90.75
2023-05-08T04:11:05.982Z,90.75
2023-05-08T04:12:05.797Z,90.75
2023-05-08T04:13:06.070Z,90.75
2023-05-08T04:14:05.773Z,90.75
2023-05-08T04:15:05.778Z,90.80
2023-05-08T04:16:05.754Z,90.80
2023-05-08T04:17:06.226Z,90.75
2023-05-08T04:18:05.960Z,90.80
2023-05-08T04:19:05.710Z,90.75
2023-05-08T04:20:05.845Z,90.80
2023-05-08T04:21:05.683Z,90.70
2023-05-08T04:22:05.673Z,90.70
2023-05-08T04:23:05.955Z,90.70
2023-05-08T04:24:05.939Z,90.66
2023-05-08T04:25:05.924Z,90.70
2023-05-08T04:26:05.755Z,90.66
2023-05-08T04:27:05.848Z,90.66
2023-05-08T04:28:05.585Z,90.55
2023-05-08T04:29:05.573Z,90.55
2023-05-08T04:30:05.563Z,90.55
2023-05-08T04:31:05.569Z,90.55
2023-05-08T04:32:05.599Z,90.55
2023-05-08T04:33:05.574Z,90.55
2023-05-08T04:34:05.508Z,90.55
2023-05-08T04:35:05.803Z,90.55
2023-05-08T04:36:05.506Z,90.55
2023-05-08T04:37:05.467Z,90.55
2023-05-08T04:38:05.455Z,90.45
2023-05-08T04:39:05.443Z,90.51
2023-05-08T04:40:05.425Z,90.55
2023-05-08T04:41:05.432Z,90.55
2023-05-08T04:42:05.402Z,90.45
2023-05-08T04:43:05.386Z,90.45
2023-05-08T04:44:05.371Z,90.45
2023-05-08T04:45:05.357Z,90.45
2023-05-08T04:46:05.350Z,90.45
2023-05-08T04:47:05.349Z,90.35
2023-05-08T04:48:05.338Z,90.45
2023-05-08T04:49:05.307Z,90.45
2023-05-08T04:50:05.300Z,90.45
2023-05-08T04:51:05.282Z,90.35
2023-05-08T04:52:05.272Z,90.35
2023-05-08T04:53:05.262Z,90.45
2023-05-08T04:54:05.249Z,90.35
2023-05-08T04:55:05.239Z,90.35
2023-05-08T04:56:05.226Z,90.35
2023-05-08T04:57:05.398Z,90.45
2023-05-08T04:58:05.193Z,90.35
2023-05-08T04:59:05.199Z,90.35
2023-05-08T05:00:05.157Z,90.35
2023-05-08T05:01:05.146Z,90.31
2023-05-08T05:02:05.194Z,90.25
2023-05-08T05:03:05.157Z,90.35
2023-05-08T05:04:05.254Z,90.31
2023-05-08T05:05:05.089Z,90.35
2023-05-08T05:06:05.075Z,90.31
2023-05-08T05:07:05.067Z,90.25
2023-05-08T05:08:05.053Z,90.25
2023-05-08T05:09:05.036Z,90.25
2023-05-08T05:10:05.023Z,90.25
2023-05-08T05:11:05.007Z,90.20
2023-05-08T05:12:05.015Z,90.20
2023-05-08T05:13:05.008Z,90.20
2023-05-08T05:14:04.964Z,90.25
2023-05-08T05:15:04.952Z,90.14
2023-05-08T05:16:04.992Z,90.11
2023-05-08T05:17:04.927Z,90.11
2023-05-08T05:18:04.957Z,90.11
2023-05-08T05:19:04.924Z,90.11
2023-05-08T05:20:05.138Z,90.11
2023-05-08T05:21:04.870Z,90.11
2023-05-08T05:22:04.855Z,90.11
2023-05-08T05:23:04.852Z,90.11
2023-05-08T05:24:04.879Z,90.11
2023-05-08T05:25:04.830Z,90.11
2023-05-08T05:26:04.803Z,90.00
2023-05-08T05:27:04.806Z,90.00
2023-05-08T05:28:04.780Z,90.00
2023-05-08T05:29:04.767Z,90.05
2023-05-08T05:30:04.756Z,89.90
2023-05-08T05:31:04.832Z,90.00
2023-05-08T05:32:04.726Z,90.00
2023-05-08T05:33:04.777Z,90.00
2023-05-08T05:34:04.706Z,90.00
2023-05-08T05:35:04.711Z,90.00
2023-05-08T05:36:04.672Z,90.00
2023-05-08T05:37:04.660Z,90.00
2023-05-08T05:38:04.649Z,90.00
2023-05-08T05:39:04.629Z,90.00
2023-05-08T05:40:04.634Z,90.00
2023-05-08T05:41:04.757Z,90.05
2023-05-08T05:42:04.606Z,90.05
2023-05-08T05:43:04.611Z,89.90
2023-05-08T05:44:04.564Z,90.00
2023-05-08T05:45:04.548Z,89.90
2023-05-08T05:46:04.538Z,89.90
2023-05-08T05:47:04.589Z,89.90
2023-05-08T05:48:04.531Z,89.90
2023-05-08T05:49:04.502Z,89.80
2023-05-08T05:50:04.482Z,89.80
2023-05-08T05:51:04.519Z,89.76
2023-05-08T05:52:04.471Z,89.76
2023-05-08T05:53:04.439Z,89.76
2023-05-08T05:54:04.426Z,89.70
2023-05-08T05:55:04.422Z,89.70
2023-05-08T05:56:04.398Z,89.65
2023-05-08T05:57:04.386Z,89.65
2023-05-08T05:58:04.376Z,89.76
2023-05-08T05:59:04.366Z,89.65
2023-05-08T06:00:04.503Z,89.70
2023-05-08T06:01:04.546Z,89.65
2023-05-08T06:02:04.334Z,89.55
2023-05-08T06:03:04.485Z,89.55
2023-05-08T06:04:04.492Z,89.55
2023-05-08T06:05:04.283Z,89.55
2023-05-08T06:06:04.276Z,89.55
2023-05-08T06:07:04.302Z,89.59
2023-05-08T06:08:04.250Z,89.55
2023-05-08T06:09:04.240Z,89.55
2023-05-08T06:10:04.219Z,89.59
2023-05-08T06:11:04.211Z,89.45
2023-05-08T06:12:04.189Z,89.45
2023-05-08T06:13:04.220Z,89.45
2023-05-08T06:14:04.160Z,89.45
2023-05-08T06:15:04.150Z,89.45
2023-05-08T06:16:04.139Z,89.45
2023-05-08T06:17:04.135Z,89.45
2023-05-08T06:18:04.163Z,89.45
2023-05-08T06:19:04.100Z,89.45
2023-05-08T06:20:04.079Z,89.45
2023-05-08T06:21:04.095Z,89.50
2023-05-08T06:22:04.069Z,89.39
2023-05-08T06:23:04.064Z,89.45
2023-05-08T06:24:04.028Z,89.35
2023-05-08T06:25:04.029Z,89.35
2023-05-08T06:26:04.023Z,89.35
2023-05-08T06:27:04.032Z,89.35
2023-05-08T06:28:03.975Z,89.25
2023-05-08T06:29:03.962Z,89.25
2023-05-08T06:30:03.945Z,89.35
2023-05-08T06:31:03.952Z,89.25
2023-05-08T06:32:03.918Z,89.25
2023-05-08T06:33:03.985Z,89.25
2023-05-08T06:34:03.895Z,89.25
2023-05-08T06:35:03.889Z,89.29
2023-05-08T06:36:03.872Z,89.29
2023-05-08T06:37:03.856Z,89.25
2023-05-08T06:38:03.847Z,89.15
2023-05-08T06:39:03.864Z,89.15
2023-05-08T06:40:12.001Z,89.04
2023-05-08T06:41:04.829Z,89.15
2023-05-08T06:42:03.785Z,89.04
2023-05-08T06:43:03.779Z,89.04
2023-05-08T06:44:03.774Z,89.04
2023-05-08T06:45:03.759Z,89.04
2023-05-08T06:46:03.922Z,89.01
2023-05-08T06:47:03.793Z,88.95
2023-05-08T06:48:03.784Z,89.04
2023-05-08T06:49:03.704Z,89.04
2023-05-08T06:50:03.689Z,88.95
2023-05-08T06:51:03.677Z,88.95
2023-05-08T06:52:03.665Z,88.95
2023-05-08T06:53:03.667Z,88.95
2023-05-08T06:54:03.645Z,88.95
2023-05-08T06:55:03.649Z,88.95
2023-05-08T06:56:03.647Z,88.84
2023-05-08T06:57:03.595Z,88.95
2023-05-08T06:58:03.581Z,88.84
2023-05-08T06:59:08.382Z,88.80
2023-05-08T07:00:03.557Z,88.84
2023-05-08T07:01:03.565Z,88.80
2023-05-08T07:02:03.609Z,88.75
2023-05-08T07:03:03.590Z,88.80
2023-05-08T07:04:03.496Z,88.70
2023-05-08T07:05:03.640Z,88.70
2023-05-08T07:06:03.470Z,88.70
2023-05-08T07:07:03.485Z,88.70
2023-05-08T07:08:03.450Z,88.60
2023-05-08T07:09:03.441Z,88.60
2023-05-08T07:10:03.804Z,88.60
2023-05-08T07:11:03.429Z,88.60
2023-05-08T07:12:03.391Z,88.56
2023-05-08T07:13:03.446Z,88.49
2023-05-08T07:14:03.367Z,88.49
2023-05-08T07:15:13.825Z,88.40
2023-05-08T07:16:04.709Z,88.35
2023-05-08T07:17:03.329Z,88.35
2023-05-08T07:18:03.399Z,88.35
2023-05-08T07:19:03.304Z,88.35
2023-05-08T07:20:03.286Z,88.25
2023-05-08T07:21:03.273Z,88.25
2023-05-08T07:22:03.298Z,88.15
2023-05-08T07:23:03.251Z,88.15
2023-05-08T07:24:03.240Z,88.11
2023-05-08T07:25:03.226Z,88.15
2023-05-08T07:26:03.205Z,88.15
2023-05-08T07:27:03.250Z,88.05
2023-05-08T07:28:03.190Z,88.01
2023-05-08T07:29:03.173Z,88.11
2023-05-08T07:30:03.169Z,88.01
2023-05-08T07:31:03.184Z,88.05
2023-05-08T07:32:03.286Z,88.15
2023-05-08T07:33:03.170Z,88.15
2023-05-08T07:34:03.102Z,88.15
2023-05-08T07:35:03.091Z,88.05
2023-05-08T07:36:03.071Z,87.95
2023-05-08T07:37:03.058Z,88.05
2023-05-08T07:38:03.047Z,88.15
2023-05-08T07:39:03.035Z,88.15
2023-05-08T07:40:03.024Z,88.15
2023-05-08T07:41:03.051Z,88.15
2023-05-08T07:42:02.990Z,88.15
2023-05-08T07:43:03.097Z,88.05
2023-05-08T07:44:02.970Z,88.05
2023-05-08T07:45:02.951Z,88.05
2023-05-08T07:46:03.358Z,87.95
2023-05-08T07:47:02.939Z,87.95
2023-05-08T07:48:03.043Z,87.95
2023-05-08T07:49:02.900Z,87.95
2023-05-08T07:50:02.887Z,87.85
2023-05-08T07:51:02.871Z,87.95
2023-05-08T07:52:02.854Z,87.95
2023-05-08T07:53:02.857Z,88.05
2023-05-08T07:54:02.839Z,87.85
2023-05-08T07:55:02.822Z,87.81
2023-05-08T07:56:02.803Z,87.81
2023-05-08T07:57:02.798Z,87.71
2023-05-08T07:58:02.784Z,87.60
2023-05-08T07:59:02.849Z,87.60
2023-05-08T08:00:02.751Z,87.60
2023-05-08T08:01:02.741Z,87.60
2023-05-08T08:02:02.782Z,87.71
2023-05-08T08:03:02.840Z,87.71
2023-05-08T08:04:02.848Z,87.60
2023-05-08T08:05:02.689Z,87.60
2023-05-08T08:06:02.667Z,87.51
2023-05-08T08:07:02.668Z,87.36
2023-05-08T08:08:02.671Z,87.51
2023-05-08T08:09:02.652Z,87.40
2023-05-08T08:10:02.629Z,87.51
2023-05-08T08:11:03.956Z,87.40
2023-05-08T08:12:02.598Z,87.36
2023-05-08T08:13:02.658Z,87.46
2023-05-08T08:14:02.570Z,87.40
2023-05-08T08:15:02.570Z,87.40
2023-05-08T08:16:02.571Z,87.26
2023-05-08T08:17:02.635Z,87.26
2023-05-08T08:18:02.545Z,87.26
2023-05-08T08:19:02.499Z,87.40
2023-05-08T08:20:02.487Z,87.36
2023-05-08T08:21:02.480Z,87.26
2023-05-08T08:22:02.464Z,87.26
2023-05-08T08:23:02.447Z,87.26
2023-05-08T08:24:02.423Z,87.20
2023-05-08T08:25:02.418Z,87.40
2023-05-08T08:26:02.398Z,87.40
2023-05-08T08:27:02.388Z,87.51
2023-05-08T08:28:02.377Z,87.45
2023-05-08T08:29:02.372Z,87.54
2023-05-08T08:30:15.902Z,87.59
2023-05-08T08:31:03.593Z,87.54
2023-05-08T08:32:02.335Z,87.45
2023-05-08T08:33:02.458Z,87.45
2023-05-08T08:34:02.293Z,87.45
2023-05-08T08:35:02.322Z,87.51
2023-05-08T08:36:02.264Z,87.40
2023-05-08T08:37:02.255Z,87.34
2023-05-08T08:38:02.253Z,87.45
2023-05-08T08:39:02.229Z,87.65
2023-05-08T08:40:02.233Z,87.34
2023-05-08T08:41:02.210Z,87.34
2023-05-08T08:42:02.205Z,87.20
2023-05-08T08:43:02.179Z,87.20
2023-05-08T08:44:02.191Z,87.24
2023-05-08T08:45:02.164Z,87.20
2023-05-08T08:46:02.163Z,87.10
2023-05-08T08:47:02.238Z,87.10
2023-05-08T08:48:02.149Z,87.10
2023-05-08T08:49:02.093Z,87.00
2023-05-08T08:50:02.122Z,86.96
2023-05-08T08:51:02.069Z,86.96
2023-05-08T08:52:02.054Z,86.85
2023-05-08T08:53:02.091Z,86.76
2023-05-08T08:54:02.384Z,86.76
2023-05-08T08:55:02.033Z,86.76
2023-05-08T08:56:02.007Z,86.61
2023-05-08T08:57:01.997Z,86.71
2023-05-08T08:58:01.982Z,86.96
2023-05-08T08:59:01.970Z,86.85
2023-05-08T09:00:01.953Z,87.05
2023-05-08T09:01:01.935Z,87.26
2023-05-08T09:02:01.977Z,87.56
2023-05-08T09:03:02.245Z,87.05
2023-05-08T09:04:02.050Z,87.16
2023-05-08T09:05:01.889Z,87.16
2023-05-08T09:06:01.878Z,87.16
2023-05-08T09:07:01.867Z,87.16
2023-05-08T09:08:01.867Z,87.26
2023-05-08T09:09:01.838Z,87.05
2023-05-08T09:10:01.820Z,87.87
2023-05-08T09:11:01.809Z,87.91
2023-05-08T09:12:02.085Z,88.01
2023-05-08T09:13:01.805Z,88.11
2023-05-08T09:14:01.775Z,88.42
2023-05-08T09:15:01.753Z,87.97
2023-05-08T09:16:01.794Z,87.66
2023-05-08T09:17:01.724Z,87.42
2023-05-08T09:18:01.742Z,87.52
2023-05-08T09:19:02.896Z,87.42
2023-05-08T09:20:01.690Z,87.52
2023-05-08T09:21:01.677Z,88.23
2023-05-08T09:22:01.658Z,87.73
2023-05-08T09:23:01.652Z,87.99
2023-05-08T09:24:01.638Z,88.59
2023-05-08T09:25:01.620Z,88.29
2023-05-08T09:26:01.610Z,88.70
2023-05-08T09:27:01.731Z,88.70
2023-05-08T09:28:01.579Z,88.59
2023-05-08T09:29:01.573Z,89.10
2023-05-08T09:30:01.613Z,88.55
2023-05-08T09:31:01.567Z,89.16
2023-05-08T09:32:01.543Z,89.70
2023-05-08T09:33:01.648Z,89.36
2023-05-08T09:34:01.503Z,89.70
2023-05-08T09:35:01.608Z,88.96
2023-05-08T09:36:01.472Z,88.85
2023-05-08T09:37:01.458Z,88.65
2023-05-08T09:38:01.439Z,90.07
2023-05-08T09:39:01.433Z,91.28
2023-05-08T09:40:01.431Z,92.03
2023-05-08T09:41:01.409Z,92.24
2023-05-08T09:42:01.387Z,90.47
2023-05-08T09:43:01.394Z,91.53
2023-05-08T09:44:01.370Z,91.02
2023-05-08T09:45:01.355Z,90.41
2023-05-08T09:46:01.363Z,90.01
2023-05-08T09:47:01.341Z,92.13
2023-05-08T09:48:01.348Z,91.42
2023-05-08T09:49:01.300Z,90.52
2023-05-08T09:50:01.295Z,91.02
2023-05-08T09:51:01.409Z,90.92
2023-05-08T09:52:01.280Z,90.67
2023-05-08T09:53:01.266Z,90.88
2023-05-08T09:54:01.236Z,91.89
2023-05-08T09:55:01.368Z,91.78
2023-05-08T09:56:01.203Z,91.89
2023-05-08T09:57:01.189Z,92.49
2023-05-08T09:58:01.194Z,91.49
2023-05-08T09:59:01.163Z,91.78
2023-05-08T10:00:01.305Z,91.44
2023-05-08T10:01:01.260Z,91.03
2023-05-08T10:02:01.136Z,92.09
2023-05-08T10:03:01.257Z,92.29
2023-05-08T10:04:01.208Z,94.86
2023-05-08T10:05:01.238Z,94.56
2023-05-08T10:06:01.226Z,94.36
2023-05-08T10:07:01.443Z,93.55
2023-05-08T10:08:01.046Z,93.15
2023-05-08T10:09:01.028Z,96.18
2023-05-08T10:10:01.294Z,96.28
2023-05-08T10:11:01.354Z,95.78
2023-05-08T10:12:01.243Z,95.12
2023-05-08T10:13:00.994Z,95.83
2023-05-08T10:14:00.965Z,93.36
2023-05-08T10:15:01.257Z,96.39
2023-05-08T10:16:01.350Z,99.02
2023-05-08T10:17:00.974Z,98.61
2023-05-08T10:18:00.969Z,97.20
2023-05-08T10:19:00.899Z,95.78
2023-05-08T10:20:00.887Z,95.48
2023-05-08T10:21:00.876Z,97.20
2023-05-08T10:22:00.863Z,97.56
2023-05-08T10:23:01.036Z,95.23
2023-05-08T10:24:00.840Z,97.56
2023-05-08T10:25:00.845Z,99.73
2023-05-08T10:26:00.805Z,98.67
2023-05-08T10:28:00.777Z,98.22
2023-05-08T10:29:00.764Z,99.63
2023-05-08T10:30:00.762Z,99.99
2023-05-08T10:31:00.857Z,99.93
2023-05-08T10:32:00.732Z,98.72
2023-05-08T10:33:00.733Z,98.32
2023-05-08T10:34:00.717Z,97.51
2023-05-08T10:35:00.685Z,99.99
2023-05-08T10:36:00.669Z,98.47
2023-05-08T10:37:00.669Z,98.37
2023-05-08T10:38:00.645Z,99.99
2023-05-08T10:39:00.762Z,99.99
2023-05-08T10:40:00.634Z,99.99
2023-05-08T10:41:00.607Z,99.99
2023-05-08T10:42:00.607Z,99.99
2023-05-08T10:43:00.590Z,99.99
2023-05-08T10:44:03.041Z,98.73
2023-05-08T10:45:00.564Z,98.43
2023-05-08T10:46:00.597Z,99.04
2023-05-08T10:47:00.527Z,99.99
2023-05-08T10:48:00.539Z,99.74
2023-05-08T10:49:00.500Z,98.93
2023-05-08T10:50:00.571Z,99.99
2023-05-08T10:51:00.475Z,99.99
2023-05-08T10:52:00.477Z,99.99
2023-05-08T10:53:00.745Z,99.99
2023-05-08T10:54:00.432Z,99.99
2023-05-08T10:55:00.486Z,99.99
2023-05-08T10:56:00.416Z,99.99
2023-05-08T10:57:00.398Z,99.99
2023-05-08T10:58:00.392Z,99.99
2023-05-08T10:59:00.380Z,99.99
2023-05-08T11:00:00.364Z,99.99
2023-05-08T11:01:00.346Z,99.99
2023-05-08T11:02:00.351Z,99.99
2023-05-08T11:03:00.390Z,99.99
2023-05-08T11:04:00.384Z,99.99
2023-05-08T11:05:00.292Z,99.99
2023-05-08T11:06:00.324Z,99.99
2023-05-08T11:07:00.266Z,99.99
2023-05-08T11:08:00.251Z,99.99
2023-05-08T11:09:01.018Z,99.99
2023-05-08T11:10:00.225Z,99.99
2023-05-08T11:11:00.328Z,99.99
2023-05-08T11:12:00.188Z,99.99
2023-05-08T11:13:00.337Z,99.99
2023-05-08T11:14:00.193Z,99.99
2023-05-08T11:15:00.214Z,99.99
2023-05-08T11:16:00.259Z,99.99
2023-05-08T11:17:00.173Z,99.99
2023-05-08T11:18:00.190Z,99.99
2023-05-08T11:19:00.100Z,99.99
2023-05-08T11:20:00.183Z,99.99
2023-05-08T11:21:00.116Z,99.99
2023-05-08T11:22:00.069Z,99.99
2023-05-08T11:23:00.051Z,99.99
2023-05-08T11:24:00.043Z,99.99
2023-05-08T11:25:00.024Z,99.99
2023-05-08T11:26:00.020Z,99.99
2023-05-08T11:27:00.029Z,99.99
2023-05-08T11:27:59.982Z,99.99
2023-05-08T11:28:59.970Z,99.99
2023-05-08T11:29:59.956Z,99.99
2023-05-08T11:30:59.938Z,99.99
2023-05-08T11:31:59.970Z,99.99
2023-05-08T11:32:59.967Z,99.99
2023-05-08T11:33:59.898Z,99.99
2023-05-08T11:34:59.892Z,99.99
2023-05-08T11:35:59.883Z,99.99
2023-05-08T11:36:59.864Z,99.99
2023-05-08T11:37:59.848Z,99.99
2023-05-08T11:38:59.836Z,99.99
2023-05-08T11:39:59.848Z,99.99
2023-05-08T11:40:59.836Z,99.99
2023-05-08T11:41:59.798Z,99.99
2023-05-08T11:42:59.811Z,99.99
2023-05-08T11:43:59.786Z,99.99
2023-05-08T11:44:59.758Z,99.99
2023-05-08T11:45:59.745Z,99.99
2023-05-08T11:46:59.807Z,99.99
2023-05-08T11:47:59.762Z,99.99
2023-05-08T11:48:59.712Z,99.99
2023-05-08T11:49:59.694Z,99.99
2023-05-08T11:50:59.681Z,99.99
2023-05-08T11:51:59.716Z,99.99
2023-05-08T11:52:59.649Z,99.99
2023-05-08T11:53:59.640Z,99.99
2023-05-08T11:54:59.974Z,99.99
2023-05-08T11:55:59.613Z,99.99
2023-05-08T11:56:59.817Z,99.99
2023-05-08T11:57:59.584Z,99.99
2023-05-08T11:58:59.694Z,99.99
2023-05-08T11:59:59.565Z,99.99
2023-05-08T12:00:59.697Z,99.99
2023-05-08T12:02:07.710Z,99.99
2023-05-08T12:03:00.637Z,99.99
2023-05-08T12:03:59.778Z,99.99
2023-05-08T12:04:59.616Z,99.99
2023-05-08T12:05:59.683Z,99.99
2023-05-08T12:06:59.577Z,99.99
2023-05-08T12:07:59.536Z,99.99
2023-05-08T12:08:59.438Z,99.99
2023-05-08T12:09:59.517Z,99.99
2023-05-08T12:10:59.409Z,99.99
2023-05-08T12:11:59.405Z,99.99
2023-05-08T12:12:59.412Z,99.99
2023-05-08T12:13:59.374Z,99.99
2023-05-08T12:14:59.423Z,99.99
2023-05-08T12:15:59.358Z,99.99
2023-05-08T12:16:59.375Z,99.99
2023-05-08T12:17:59.431Z,99.99
2023-05-08T12:18:59.308Z,99.99
2023-05-08T12:19:59.293Z,99.99
2023-05-08T12:20:59.272Z,99.99
2023-05-08T12:21:59.264Z,99.99
2023-05-08T12:22:59.255Z,99.99
2023-05-08T12:23:59.240Z,99.99
2023-05-08T12:24:59.229Z,99.99
2023-05-08T12:25:59.218Z,99.99
2023-05-08T12:26:59.200Z,99.99
2023-05-08T12:27:59.204Z,99.99
2023-05-08T12:28:59.185Z,99.99
2023-05-08T12:29:59.161Z,99.99
2023-05-08T12:30:59.214Z,99.99
2023-05-08T12:31:59.149Z,99.99
2023-05-08T12:32:59.161Z,99.99
2023-05-08T12:33:59.122Z,99.99
2023-05-08T12:34:59.095Z,99.99
2023-05-08T12:35:59.083Z,99.99
2023-05-08T12:36:59.075Z,99.99
2023-05-08T12:37:59.056Z,99.99
2023-05-08T12:38:59.043Z,99.99
2023-05-08T12:39:59.045Z,99.99
2023-05-08T12:40:59.016Z,99.99
2023-05-08T12:42:00.836Z,99.99
2023-05-08T12:42:58.987Z,99.99
2023-05-08T12:43:58.978Z,99.99
2023-05-08T12:44:58.965Z,99.99
2023-05-08T12:45:58.961Z,99.99
2023-05-08T12:46:59.138Z,99.99
2023-05-08T12:47:58.986Z,99.99
2023-05-08T12:48:58.914Z,99.99
2023-05-08T12:49:58.901Z,99.99
2023-05-08T12:50:58.888Z,99.99
2023-05-08T12:51:58.871Z,99.99
2023-05-08T12:52:58.857Z,99.99